createdAt,value
2019-03-02T00:02:12.543Z,36.77
2019-03-02T00:05:01.336Z,41.33
2019-03-02T00:07:50.149Z,39.17
2019-03-02T00:10:40.647Z,46.67
2019-03-02T00:13:29.497Z,44.13
2019-03-02T00:16:18.298Z,44.13
2019-03-02T00:24:57.907Z,45.07
2019-03-02T00:27:45.954Z,40.93
2019-03-02T00:30:41.621Z,39.97
2019-03-02T00:33:21.476Z,36.30
2019-03-02T00:36:10.268Z,32.73
2019-03-02T00:38:59.085Z,36.00
2019-03-02T00:41:47.884Z,28.67
2019-03-02T00:44:38.596Z,33.77
2019-03-02T00:47:19.955Z,27.30
2019-03-02T00:53:23.883Z,27.87
2019-03-02T00:56:12.662Z,37.93
2019-03-02T00:59:03.976Z,32.37
2019-03-02T01:01:51.995Z,35.10
2019-03-02T01:04:40.813Z,34.70
2019-03-02T01:07:29.615Z,31.80
2019-03-02T01:13:12.710Z,25.13
2019-03-02T01:16:01.522Z,36.23
2019-03-02T01:18:50.325Z,33.00
2019-03-02T01:21:41.313Z,32.00
2019-03-02T01:24:29.683Z,42.50
2019-03-02T01:27:18.504Z,34.03
2019-03-02T01:30:30.061Z,26.50
2019-03-02T01:33:18.751Z,29.37
2019-03-02T01:36:07.566Z,23.00
2019-03-02T01:38:56.367Z,22.70
2019-03-02T01:41:45.185Z,26.63
2019-03-02T01:44:33.987Z,53.70
2019-03-02T01:47:22.797Z,34.00
2019-03-02T01:50:08.707Z,25.60
2019-03-02T01:52:56.819Z,28.43
2019-03-02T01:55:45.620Z,25.80
2019-03-02T01:58:34.446Z,28.73
2019-03-02T02:01:24.846Z,26.03
2019-03-02T02:04:13.851Z,30.53
2019-03-02T02:07:02.638Z,25.50
2019-03-02T02:09:51.454Z,20.90
2019-03-02T02:12:40.265Z,24.93
2019-03-02T02:18:37.309Z,20.95
2019-03-02T02:21:26.587Z,18.27
2019-03-02T02:24:16.713Z,24.20
2019-03-02T02:27:05.611Z,21.37
2019-03-02T02:29:54.408Z,18.27
2019-03-02T02:32:43.205Z,20.83
2019-03-02T02:35:25.145Z,19.47
2019-03-02T02:38:15.953Z,18.57
2019-03-02T02:41:04.503Z,21.67
2019-03-02T02:43:54.192Z,20.92
2019-03-02T02:46:43.955Z,23.00
2019-03-02T02:49:25.799Z,24.07
2019-03-02T02:52:14.626Z,22.13
2019-03-02T02:58:19.290Z,30.97
2019-03-02T03:01:08.420Z,27.40
2019-03-02T03:03:59.452Z,26.83
2019-03-02T03:06:47.756Z,19.73
2019-03-02T03:12:32.166Z,24.40
2019-03-02T03:15:21.033Z,20.97
2019-03-02T03:18:12.542Z,27.17
2019-03-02T03:21:00.471Z,26.80
2019-03-02T03:26:57.076Z,24.63
2019-03-02T03:29:49.506Z,24.47
2019-03-02T03:32:36.511Z,21.13
2019-03-02T03:35:25.458Z,21.82
2019-03-02T03:38:14.310Z,22.23
2019-03-02T03:41:05.253Z,21.60
2019-03-02T03:43:53.820Z,24.97
2019-03-02T03:46:42.652Z,24.07
2019-03-02T03:49:34.368Z,21.00
2019-03-02T03:52:14.494Z,26.43
2019-03-02T03:55:03.435Z,26.57
2019-03-02T03:57:55.414Z,27.63
2019-03-02T04:00:42.846Z,25.97
2019-03-02T04:03:31.769Z,28.50
2019-03-02T04:06:23.355Z,26.63
2019-03-02T04:09:11.278Z,37.93
2019-03-02T04:12:00.160Z,22.63
2019-03-02T04:14:49.319Z,25.70
2019-03-02T04:17:39.104Z,20.67
2019-03-02T04:20:49.685Z,23.77
2019-03-02T04:23:38.743Z,28.10
2019-03-02T04:26:31.301Z,25.47
2019-03-02T04:29:18.127Z,34.87
2019-03-02T04:32:06.972Z,25.90
2019-03-02T04:34:57.802Z,28.43
2019-03-02T04:37:46.371Z,23.67
2019-03-02T04:40:35.208Z,29.73
2019-03-02T04:43:23.999Z,25.73
2019-03-02T04:46:15.432Z,27.50
2019-03-02T04:49:22.444Z,25.95
2019-03-02T04:52:04.044Z,27.00
2019-03-02T04:54:52.855Z,41.57
2019-03-02T04:57:43.151Z,30.70
2019-03-02T05:00:33.088Z,29.03
2019-03-02T05:03:22.980Z,31.55
2019-03-02T05:06:11.862Z,27.00
2019-03-02T05:09:00.659Z,29.67
2019-03-02T05:11:49.476Z,29.87
2019-03-02T05:14:40.168Z,32.00
2019-03-02T05:17:28.827Z,31.13
2019-03-02T05:20:17.645Z,32.30
2019-03-02T05:23:27.641Z,31.10
2019-03-02T05:26:16.021Z,35.67
2019-03-02T05:29:04.824Z,36.27
2019-03-02T05:31:53.635Z,29.13
2019-03-02T05:34:42.431Z,35.50
2019-03-02T05:37:34.871Z,39.47
2019-03-02T05:40:24.460Z,39.57
2019-03-02T05:43:12.318Z,30.33
2019-03-02T05:46:01.122Z,39.10
2019-03-02T05:48:49.944Z,39.53
2019-03-02T05:51:31.190Z,39.40
2019-03-02T05:54:20.005Z,34.60
2019-03-02T05:57:08.806Z,42.30
2019-03-02T06:03:12.809Z,48.67
2019-03-02T06:06:01.627Z,42.63
2019-03-02T06:08:50.452Z,47.03
2019-03-02T06:11:40.512Z,47.93
2019-03-02T06:14:30.471Z,53.97
2019-03-02T06:17:20.337Z,49.67
2019-03-02T06:20:32.540Z,46.63
2019-03-02T06:23:20.901Z,45.83
2019-03-02T06:26:10.331Z,49.40
2019-03-02T06:29:00.251Z,38.93
2019-03-02T06:31:50.692Z,48.20
2019-03-02T06:34:39.623Z,46.87
2019-03-02T06:37:28.740Z,47.80
2019-03-02T06:40:20.152Z,51.70
2019-03-02T06:43:08.167Z,47.00
2019-03-02T06:45:56.961Z,46.05
2019-03-02T06:48:45.910Z,54.33
2019-03-02T06:51:28.769Z,48.43
2019-03-02T06:54:17.584Z,48.67
2019-03-02T06:57:06.379Z,56.60
2019-03-02T06:59:55.195Z,52.97
2019-03-02T07:02:43.990Z,55.97
2019-03-02T07:05:33.967Z,47.60
2019-03-02T07:08:25.343Z,52.30
2019-03-02T07:11:13.866Z,53.70
2019-03-02T07:16:57.365Z,54.53
2019-03-02T07:22:41.551Z,61.40
2019-03-02T07:25:30.380Z,53.03
2019-03-02T07:28:19.171Z,55.00
2019-03-02T07:31:07.995Z,52.70
2019-03-02T07:33:56.789Z,56.23
2019-03-02T07:36:45.611Z,96.53
2019-03-02T07:39:36.453Z,56.93
2019-03-02T07:42:24.940Z,51.57
2019-03-02T07:45:34.856Z,63.10
2019-03-02T07:48:23.585Z,53.33
2019-03-02T07:51:06.450Z,55.63
2019-03-02T07:53:55.406Z,56.80
2019-03-02T07:56:44.213Z,56.77
2019-03-02T07:59:33.024Z,50.17
2019-03-02T08:02:21.830Z,55.47
2019-03-02T08:05:29.722Z,43.27
2019-03-02T08:08:18.539Z,45.47
2019-03-02T08:11:10.596Z,54.53
2019-03-02T08:13:58.171Z,47.83
2019-03-02T08:16:47.239Z,44.37
2019-03-02T08:19:36.057Z,47.93
2019-03-02T08:22:24.850Z,48.77
2019-03-02T08:25:14.224Z,43.13
2019-03-02T08:28:03.093Z,40.10
2019-03-02T08:30:51.903Z,40.07
2019-03-02T08:33:45.905Z,42.97
2019-03-02T08:36:31.235Z,36.00
2019-03-02T08:39:20.032Z,41.87
2019-03-02T08:42:11.853Z,40.20
2019-03-02T08:44:59.365Z,41.95
2019-03-02T08:48:07.199Z,43.97
2019-03-02T08:50:55.998Z,51.27
2019-03-02T08:53:37.868Z,48.77
2019-03-02T08:56:26.657Z,47.93
2019-03-02T08:59:15.481Z,51.10
2019-03-02T09:02:04.366Z,43.10
2019-03-02T09:04:53.162Z,50.77
2019-03-02T09:07:42.371Z,61.00
2019-03-02T09:10:31.167Z,55.00
2019-03-02T09:13:19.974Z,59.73
2019-03-02T09:16:08.781Z,49.43
2019-03-02T09:18:57.582Z,53.07
2019-03-02T09:21:48.009Z,62.03
2019-03-02T09:24:36.943Z,67.07
2019-03-02T09:27:25.787Z,65.07
2019-03-02T09:30:35.532Z,58.93
2019-03-02T09:33:24.692Z,58.90
2019-03-02T09:42:04.435Z,69.80
2019-03-02T09:44:53.229Z,74.77
2019-03-02T09:47:43.954Z,66.77
2019-03-02T09:50:32.568Z,72.73
2019-03-02T09:53:12.637Z,75.97
2019-03-02T09:56:01.455Z,78.60
2019-03-02T09:58:50.250Z,73.17
2019-03-02T10:01:39.483Z,57.50
2019-03-02T10:04:29.584Z,92.67
2019-03-02T10:07:18.402Z,86.47
2019-03-02T10:10:29.084Z,66.30
2019-03-02T10:13:17.063Z,75.83
2019-03-02T10:16:05.932Z,71.17
2019-03-02T10:18:54.827Z,80.77
2019-03-02T10:21:47.327Z,63.37
2019-03-02T10:24:34.155Z,93.30
2019-03-02T10:27:22.969Z,69.13
2019-03-02T10:30:32.672Z,62.37
2019-03-02T10:36:15.586Z,56.07
2019-03-02T10:39:25.312Z,52.47
2019-03-02T10:42:14.110Z,48.90
2019-03-02T10:45:02.933Z,47.20
2019-03-02T10:48:10.815Z,75.07
2019-03-02T10:51:02.319Z,42.80
2019-03-02T10:53:42.975Z,50.37
2019-03-02T10:56:31.797Z,55.47
2019-03-02T10:59:20.605Z,46.37
2019-03-02T11:02:09.588Z,53.80
2019-03-02T11:10:52.243Z,53.80
2019-03-02T11:13:59.355Z,38.57
2019-03-02T11:17:07.204Z,49.00
2019-03-02T11:20:15.029Z,49.47
2019-03-02T11:26:18.666Z,46.90
2019-03-02T11:29:26.505Z,50.70
2019-03-02T11:32:34.350Z,37.57
2019-03-02T11:35:42.427Z,44.50
2019-03-02T11:38:50.268Z,40.40
2019-03-02T11:41:58.088Z,44.70
2019-03-02T11:45:05.935Z,41.17
2019-03-02T11:51:33.577Z,45.00
2019-03-02T11:54:41.413Z,49.80
2019-03-02T11:57:49.262Z,37.40
2019-03-02T12:00:57.869Z,37.07
2019-03-02T12:04:06.649Z,36.90
2019-03-02T12:07:14.480Z,31.90
2019-03-02T12:10:22.327Z,38.20
2019-03-02T12:13:31.126Z,32.67
2019-03-02T12:16:39.803Z,43.70
2019-03-02T12:19:47.637Z,40.37
2019-03-02T12:22:55.473Z,47.50
2019-03-02T12:26:03.299Z,42.90
2019-03-02T12:29:13.504Z,33.90
2019-03-02T12:32:20.689Z,44.27
2019-03-02T12:38:27.627Z,48.10
2019-03-02T12:47:40.578Z,44.77
2019-03-02T12:50:24.932Z,47.87
2019-03-02T12:53:32.781Z,46.13
2019-03-02T12:56:42.059Z,48.33
2019-03-02T12:59:50.186Z,51.80
2019-03-02T13:02:58.015Z,47.27
2019-03-02T13:06:05.855Z,47.07
2019-03-02T13:12:23.082Z,48.60
2019-03-02T13:24:57.876Z,55.30
2019-03-02T13:27:44.665Z,50.57
2019-03-02T13:30:52.515Z,38.70
2019-03-02T13:34:00.343Z,40.27
2019-03-02T13:40:00.406Z,44.80
2019-03-02T13:43:08.290Z,43.40
2019-03-02T13:46:16.191Z,49.63
2019-03-02T13:49:24.123Z,44.20
2019-03-02T13:52:24.522Z,55.60
2019-03-02T13:55:13.520Z,45.37
2019-03-02T13:58:22.792Z,48.33
2019-03-02T14:01:30.644Z,43.03
2019-03-02T14:04:39.073Z,50.30
2019-03-02T14:07:48.037Z,43.00
2019-03-02T14:10:57.309Z,42.83
2019-03-02T14:14:08.331Z,42.73
2019-03-02T14:26:40.331Z,38.23
2019-03-02T14:29:48.320Z,46.53
2019-03-02T14:32:56.177Z,39.53
2019-03-02T14:36:04.011Z,40.92
2019-03-02T14:39:11.854Z,34.77
2019-03-02T14:42:03.970Z,37.23
2019-03-02T14:44:50.807Z,47.03
2019-03-02T14:47:39.393Z,40.57
2019-03-02T14:50:47.309Z,42.00
2019-03-02T14:53:55.140Z,43.17
2019-03-02T14:57:02.987Z,43.97
2019-03-02T14:59:51.560Z,42.97
2019-03-02T15:02:40.164Z,43.27
2019-03-02T15:05:47.997Z,33.50
2019-03-02T15:11:51.407Z,37.17
2019-03-02T15:21:23.981Z,45.47
2019-03-02T15:30:37.009Z,48.53
2019-03-02T15:36:34.998Z,41.80
2019-03-02T15:39:42.827Z,43.77
2019-03-02T15:45:42.951Z,43.50
2019-03-02T15:48:51.027Z,38.47
2019-03-02T16:00:53.196Z,35.15
2019-03-02T16:04:01.025Z,33.50
2019-03-02T16:07:08.871Z,39.57
2019-03-02T16:10:16.701Z,35.27
2019-03-02T16:13:24.619Z,40.07
2019-03-02T16:19:41.912Z,44.90
2019-03-02T16:25:59.137Z,36.47
2019-03-02T16:29:06.966Z,44.73
2019-03-02T16:32:16.764Z,41.60
2019-03-02T16:35:45.293Z,35.70
2019-03-02T16:41:24.196Z,39.03
2019-03-02T16:50:37.444Z,38.97
2019-03-02T16:53:45.307Z,43.20
2019-03-02T17:02:58.422Z,38.93
2019-03-02T17:09:15.970Z,40.97
2019-03-02T17:12:24.068Z,37.50
2019-03-02T17:18:27.459Z,38.37
2019-03-02T17:21:38.127Z,41.07
2019-03-02T17:24:25.628Z,52.77
2019-03-02T17:27:33.437Z,38.97
2019-03-02T17:30:41.268Z,34.00
2019-03-02T17:33:49.104Z,40.60
2019-03-02T17:36:56.948Z,42.53
2019-03-02T17:42:44.787Z,35.50
2019-03-02T17:45:35.333Z,34.43
2019-03-02T17:48:43.595Z,41.80
2019-03-02T17:51:51.436Z,39.60
2019-03-02T17:54:59.262Z,45.10
2019-03-02T18:01:06.464Z,43.02
2019-03-02T18:07:23.694Z,39.10
2019-03-02T18:19:20.072Z,44.53
2019-03-02T18:22:10.421Z,46.70
2019-03-02T18:24:59.501Z,41.97
2019-03-02T18:27:48.305Z,44.53
2019-03-02T18:30:38.953Z,37.07
2019-03-02T18:36:41.446Z,36.67
2019-03-02T18:39:27.589Z,44.30
2019-03-02T18:42:08.882Z,49.30
2019-03-02T18:45:00.505Z,40.93
2019-03-02T18:47:48.286Z,49.10
2019-03-02T18:50:56.132Z,41.27
2019-03-02T18:53:44.936Z,44.77
2019-03-02T18:56:37.314Z,51.33
2019-03-02T18:59:24.301Z,45.77
2019-03-02T19:02:32.472Z,35.80
2019-03-02T19:08:30.742Z,37.20
2019-03-02T19:11:20.161Z,42.17
2019-03-02T19:14:10.085Z,38.47
2019-03-02T19:16:58.885Z,45.80
2019-03-02T19:19:47.709Z,49.10
2019-03-02T19:22:36.515Z,41.67
2019-03-02T19:25:25.344Z,30.40
2019-03-02T19:28:14.147Z,49.10
2019-03-02T19:31:02.968Z,42.67
2019-03-02T19:33:51.765Z,39.10
2019-03-02T19:36:40.585Z,30.47
2019-03-02T19:39:29.386Z,35.37
2019-03-02T19:42:18.204Z,36.83
2019-03-02T19:44:59.466Z,30.60
2019-03-02T19:47:48.350Z,37.77
2019-03-02T19:50:37.223Z,33.73
2019-03-02T19:53:26.043Z,35.10
2019-03-02T19:56:14.840Z,31.27
2019-03-02T19:59:03.656Z,40.73
2019-03-02T20:01:52.454Z,35.00
2019-03-02T20:04:41.280Z,23.77
2019-03-02T20:07:30.104Z,25.87
2019-03-02T20:10:39.820Z,26.30
2019-03-02T20:13:28.629Z,21.60
2019-03-02T20:19:25.190Z,44.73
2019-03-02T20:22:14.016Z,28.60
2019-03-02T20:25:02.841Z,24.27
2019-03-02T20:27:51.634Z,19.90
2019-03-02T20:30:40.461Z,26.37
2019-03-02T20:33:29.262Z,23.87
2019-03-02T20:36:18.080Z,20.43
2019-03-02T20:39:27.789Z,27.50
2019-03-02T20:42:16.609Z,34.60
2019-03-02T20:44:58.084Z,24.73
2019-03-02T20:47:46.904Z,23.50
2019-03-02T20:50:35.705Z,29.87
2019-03-02T20:53:24.565Z,27.77
2019-03-02T20:56:13.408Z,25.37
2019-03-02T20:59:02.226Z,27.67
2019-03-02T21:01:51.091Z,26.60
2019-03-02T21:04:39.939Z,21.80
2019-03-02T21:07:28.777Z,23.33
2019-03-02T21:10:38.530Z,23.57
2019-03-02T21:13:46.343Z,29.70
2019-03-02T21:16:35.164Z,26.03
2019-03-02T21:19:42.987Z,18.50
2019-03-02T21:22:31.812Z,21.00
2019-03-02T21:25:20.610Z,28.60
2019-03-02T21:28:28.539Z,31.80
2019-03-02T21:31:17.333Z,18.37
2019-03-02T21:34:06.222Z,22.47
2019-03-02T21:36:55.018Z,22.60
2019-03-02T21:39:43.836Z,16.37
2019-03-02T21:42:32.625Z,11.97
2019-03-02T21:45:17.867Z,21.63
2019-03-02T21:48:06.738Z,26.37
2019-03-02T21:51:16.515Z,19.00
2019-03-02T21:57:13.073Z,15.53
2019-03-02T22:00:01.876Z,16.20
2019-03-02T22:02:50.693Z,15.23
2019-03-02T22:05:39.805Z,13.07
2019-03-02T22:08:28.619Z,17.27
2019-03-02T22:11:17.416Z,15.77
2019-03-02T22:14:06.272Z,10.60
2019-03-02T22:19:49.847Z,16.57
2019-03-02T22:22:38.645Z,11.10
2019-03-02T22:25:27.465Z,10.30
2019-03-02T22:28:16.257Z,15.60
2019-03-02T22:31:05.075Z,10.83
2019-03-02T22:33:53.879Z,14.03
2019-03-02T22:36:42.690Z,10.17
2019-03-02T22:39:31.497Z,11.40
2019-03-02T22:42:20.306Z,9.70
2019-03-02T22:45:02.374Z,14.73
2019-03-02T22:47:51.190Z,10.87
2019-03-02T22:50:39.992Z,14.47
2019-03-02T22:53:28.811Z,15.13
2019-03-02T22:56:17.602Z,12.30
2019-03-02T22:59:05.567Z,9.38
2019-03-02T23:02:33.054Z,12.17
2019-03-02T23:08:37.227Z,12.67
2019-03-02T23:11:26.023Z,10.80
2019-03-02T23:14:14.843Z,12.23
2019-03-02T23:20:11.400Z,14.57
2019-03-02T23:23:00.190Z,19.97
2019-03-02T23:25:49.016Z,14.53
2019-03-02T23:28:37.806Z,16.00
2019-03-02T23:31:26.614Z,12.90
2019-03-02T23:34:15.420Z,12.20
2019-03-02T23:37:04.233Z,15.80
2019-03-02T23:39:53.057Z,24.40
2019-03-02T23:42:41.843Z,15.43
2019-03-02T23:45:23.257Z,9.87
2019-03-02T23:48:12.074Z,16.10
2019-03-02T23:51:00.872Z,15.03
2019-03-02T23:53:49.688Z,21.43
2019-03-02T23:56:38.485Z,20.50
2019-03-02T23:59:27.305Z,11.10
